createdAt,value
2022-11-09T00:01:43.760Z,2.00
2022-11-09T00:04:11.270Z,2.42
2022-11-09T00:06:38.595Z,1.70
2022-11-09T00:09:08.207Z,1.80
2022-11-09T00:11:37.472Z,1.80
2022-11-09T00:14:04.623Z,1.75
2022-11-09T00:16:31.471Z,1.92
2022-11-09T00:18:58.895Z,1.77
2022-11-09T00:21:25.801Z,1.73
2022-11-09T00:23:53.732Z,1.58
2022-11-09T00:26:21.437Z,1.60
2022-11-09T00:28:49.098Z,1.80
2022-11-09T00:31:19.557Z,1.67
2022-11-09T00:33:53.946Z,2.00
2022-11-09T00:36:21.605Z,1.48
2022-11-09T00:38:50.602Z,1.40
2022-11-09T00:41:17.735Z,1.52
2022-11-09T00:43:45.448Z,1.73
2022-11-09T00:46:12.631Z,1.63
2022-11-09T00:48:40.216Z,1.50
2022-11-09T00:51:07.025Z,1.60
2022-11-09T00:53:33.952Z,1.63
2022-11-09T00:56:06.313Z,1.52
2022-11-09T00:58:36.468Z,1.52
2022-11-09T01:01:15.170Z,1.55
2022-11-09T01:03:44.659Z,1.48
2022-11-09T01:06:22.917Z,2.05
2022-11-09T01:08:50.309Z,1.45
2022-11-09T01:11:19.168Z,1.58
2022-11-09T01:13:46.153Z,1.50
2022-11-09T01:16:16.676Z,1.92
2022-11-09T01:18:43.819Z,1.25
2022-11-09T01:21:12.552Z,1.42
2022-11-09T01:23:40.176Z,1.50
2022-11-09T01:26:09.756Z,1.50
2022-11-09T01:28:36.726Z,1.35
2022-11-09T01:31:07.508Z,1.40
2022-11-09T01:33:34.764Z,1.92
2022-11-09T01:36:08.357Z,2.08
2022-11-09T01:38:37.758Z,1.65
2022-11-09T01:41:11.807Z,1.48
2022-11-09T01:43:38.610Z,1.30
2022-11-09T01:46:32.050Z,1.90
2022-11-09T01:49:03.443Z,1.65
2022-11-09T01:51:52.328Z,1.70
2022-11-09T01:54:27.438Z,1.45
2022-11-09T01:57:02.613Z,1.50
2022-11-09T01:59:35.996Z,1.60
2022-11-09T02:02:04.102Z,1.48
2022-11-09T02:04:41.302Z,1.40
2022-11-09T02:07:11.148Z,1.50
2022-11-09T02:10:00.017Z,1.40
2022-11-09T02:12:29.810Z,1.80
2022-11-09T02:14:57.735Z,1.45
2022-11-09T02:17:27.010Z,1.60
2022-11-09T02:19:54.066Z,1.50
2022-11-09T02:22:20.853Z,1.77
2022-11-09T02:24:50.009Z,1.77
2022-11-09T02:27:20.379Z,1.48
2022-11-09T02:29:49.235Z,1.52
2022-11-09T02:32:28.635Z,1.80
2022-11-09T02:34:57.439Z,1.58
2022-11-09T02:37:40.470Z,1.63
2022-11-09T02:40:17.846Z,1.52
2022-11-09T02:42:45.153Z,1.55
2022-11-09T02:45:12.329Z,1.63
2022-11-09T02:47:40.782Z,2.00
2022-11-09T02:50:07.850Z,2.10
2022-11-09T02:52:34.722Z,1.98
2022-11-09T02:55:01.979Z,1.75
2022-11-09T02:57:28.753Z,1.98
2022-11-09T02:59:55.960Z,2.20
2022-11-09T03:02:22.912Z,2.35
2022-11-09T03:04:51.116Z,2.60
2022-11-09T03:07:19.362Z,2.20
2022-11-09T03:09:46.718Z,2.28
2022-11-09T03:12:29.072Z,2.67
2022-11-09T03:15:05.209Z,2.67
2022-11-09T03:17:33.597Z,2.95
2022-11-09T03:20:00.597Z,3.13
2022-11-09T03:22:28.463Z,2.80
2022-11-09T03:24:55.483Z,2.80
2022-11-09T03:27:22.474Z,2.53
2022-11-09T03:29:49.827Z,2.67
2022-11-09T03:32:16.911Z,2.80
2022-11-09T03:34:43.729Z,3.08
2022-11-09T03:37:12.966Z,2.90
2022-11-09T03:39:40.236Z,2.67
2022-11-09T03:42:07.100Z,3.00
2022-11-09T03:44:33.969Z,2.72
2022-11-09T03:47:00.835Z,2.90
2022-11-09T03:49:27.612Z,2.88
2022-11-09T03:51:54.519Z,2.65
2022-11-09T03:54:21.344Z,3.40
2022-11-09T03:56:48.222Z,2.88
2022-11-09T03:59:15.057Z,3.10
2022-11-09T04:01:41.949Z,2.95
2022-11-09T04:04:08.805Z,2.72
2022-11-09T04:06:35.738Z,2.97
2022-11-09T04:09:02.602Z,3.30
2022-11-09T04:11:29.446Z,3.08
2022-11-09T04:13:56.254Z,2.90
2022-11-09T04:16:23.123Z,2.88
2022-11-09T04:18:49.848Z,3.05
2022-11-09T04:21:21.437Z,3.13
2022-11-09T04:23:50.652Z,3.08
2022-11-09T04:26:17.573Z,2.83
2022-11-09T04:28:44.403Z,3.30
2022-11-09T04:31:11.239Z,2.95
2022-11-09T04:33:38.095Z,3.20
2022-11-09T04:36:05.532Z,2.80
2022-11-09T04:38:32.436Z,2.42
2022-11-09T04:41:04.526Z,2.70
2022-11-09T04:43:31.716Z,2.40
2022-11-09T04:46:02.613Z,2.17
2022-11-09T04:48:30.940Z,2.40
2022-11-09T04:51:15.874Z,2.25
2022-11-09T04:53:42.674Z,2.28
2022-11-09T04:56:09.479Z,2.25
2022-11-09T04:58:36.410Z,2.15
2022-11-09T05:01:08.684Z,2.70
2022-11-09T05:03:36.051Z,2.50
2022-11-09T05:06:23.081Z,2.28
2022-11-09T05:08:49.894Z,2.20
2022-11-09T05:11:16.988Z,2.30
2022-11-09T05:13:43.728Z,2.28
2022-11-09T05:16:10.799Z,2.58
2022-11-09T05:18:37.774Z,2.15
2022-11-09T05:21:04.606Z,2.60
2022-11-09T05:23:50.624Z,2.53
2022-11-09T05:26:17.413Z,2.25
2022-11-09T05:28:44.984Z,2.38
2022-11-09T05:31:11.924Z,2.35
2022-11-09T05:33:38.681Z,2.03
2022-11-09T05:36:05.877Z,2.30
2022-11-09T05:38:33.141Z,2.30
2022-11-09T05:40:59.979Z,2.05
2022-11-09T05:43:26.817Z,2.15
2022-11-09T05:45:53.630Z,2.33
2022-11-09T05:48:20.474Z,2.10
2022-11-09T05:50:47.345Z,2.10
2022-11-09T05:53:22.104Z,2.30
2022-11-09T05:55:49.231Z,1.90
2022-11-09T05:58:16.050Z,2.28
2022-11-09T06:00:42.930Z,1.92
2022-11-09T06:03:11.276Z,2.20
2022-11-09T06:05:40.849Z,2.20
2022-11-09T06:08:13.259Z,2.15
2022-11-09T06:10:41.575Z,2.08
2022-11-09T06:13:08.402Z,2.80
2022-11-09T06:15:35.212Z,2.90
2022-11-09T06:18:02.142Z,2.80
2022-11-09T06:20:29.136Z,3.78
2022-11-09T06:23:02.767Z,4.05
2022-11-09T06:25:32.075Z,3.75
2022-11-09T06:27:59.084Z,3.65
2022-11-09T06:30:25.935Z,3.08
2022-11-09T06:33:01.136Z,3.30
2022-11-09T06:35:28.453Z,3.70
2022-11-09T06:37:59.604Z,3.47
2022-11-09T06:40:26.874Z,3.45
2022-11-09T06:42:56.681Z,2.40
2022-11-09T06:45:23.449Z,2.90
2022-11-09T06:47:50.275Z,2.53
2022-11-09T06:50:17.532Z,2.55
2022-11-09T06:52:44.260Z,2.17
2022-11-09T06:55:11.042Z,2.30
2022-11-09T06:57:37.875Z,3.22
2022-11-09T07:00:06.251Z,2.80
2022-11-09T07:02:33.844Z,2.63
2022-11-09T07:05:00.580Z,2.45
2022-11-09T07:07:28.414Z,2.63
2022-11-09T07:09:55.886Z,2.40
2022-11-09T07:12:22.668Z,2.63
2022-11-09T07:14:49.557Z,2.40
2022-11-09T07:17:18.800Z,2.58
2022-11-09T07:19:52.772Z,2.65
2022-11-09T07:22:19.992Z,2.30
2022-11-09T07:24:46.710Z,2.28
2022-11-09T07:27:13.454Z,2.53
2022-11-09T07:29:40.285Z,2.97
2022-11-09T07:32:07.046Z,3.70
2022-11-09T07:34:33.784Z,3.03
2022-11-09T07:37:00.554Z,2.92
2022-11-09T07:39:27.343Z,2.75
2022-11-09T07:41:55.370Z,4.13
2022-11-09T07:44:25.879Z,3.20
2022-11-09T07:46:52.708Z,3.13
2022-11-09T07:49:19.641Z,3.03
2022-11-09T07:51:46.391Z,2.75
2022-11-09T07:54:13.113Z,3.00
2022-11-09T07:56:39.912Z,3.70
2022-11-09T07:59:06.620Z,3.58
2022-11-09T08:01:33.485Z,3.70
2022-11-09T08:04:00.237Z,3.80
2022-11-09T08:06:28.088Z,3.83
2022-11-09T08:08:55.660Z,3.15
2022-11-09T08:11:22.713Z,2.55
2022-11-09T08:13:49.729Z,2.28
2022-11-09T08:16:16.928Z,2.40
2022-11-09T08:18:43.725Z,1.90
2022-11-09T08:21:10.573Z,1.95
2022-11-09T08:23:37.412Z,1.88
2022-11-09T08:26:06.541Z,1.88
2022-11-09T08:28:34.873Z,1.95
2022-11-09T08:31:04.233Z,1.83
2022-11-09T08:33:37.357Z,1.40
2022-11-09T08:38:39.996Z,1.50
2022-11-09T08:41:12.068Z,1.40
2022-11-09T08:43:40.087Z,1.30
2022-11-09T08:46:06.812Z,1.23
2022-11-09T08:48:33.521Z,1.20
2022-11-09T08:51:00.649Z,1.02
2022-11-09T08:53:29.173Z,1.00
2022-11-09T08:55:56.641Z,0.80
2022-11-09T08:58:23.861Z,0.90
2022-11-09T09:00:50.906Z,1.17
2022-11-09T09:03:17.685Z,0.90
2022-11-09T09:05:44.638Z,1.20
2022-11-09T09:08:12.853Z,0.88
2022-11-09T09:10:40.465Z,0.65
2022-11-09T09:13:07.601Z,1.00
2022-11-09T09:15:34.636Z,0.60
2022-11-09T09:18:02.750Z,0.52
2022-11-09T09:20:29.772Z,0.40
2022-11-09T09:23:00.673Z,0.52
2022-11-09T09:25:28.577Z,0.43
2022-11-09T09:27:55.608Z,0.40
2022-11-09T09:30:22.570Z,0.50
2022-11-09T09:32:49.310Z,0.57
2022-11-09T09:35:16.257Z,1.00
2022-11-09T09:37:44.501Z,0.82
2022-11-09T09:40:23.709Z,0.88
2022-11-09T09:42:53.076Z,1.08
2022-11-09T09:45:28.686Z,1.13
2022-11-09T09:48:04.434Z,1.20
2022-11-09T09:50:45.508Z,1.33
2022-11-09T09:53:32.311Z,1.17
2022-11-09T09:56:21.330Z,1.60
2022-11-09T09:58:55.722Z,1.30
2022-11-09T10:01:27.892Z,1.50
2022-11-09T10:03:54.659Z,1.40
2022-11-09T10:06:38.037Z,1.42
2022-11-09T10:11:34.513Z,1.48
2022-11-09T10:14:11.134Z,1.40
2022-11-09T10:16:56.696Z,1.35
2022-11-09T10:19:38.209Z,1.60
2022-11-09T10:22:22.903Z,1.30
2022-11-09T10:28:24.598Z,1.50
2022-11-09T10:30:51.853Z,1.42
2022-11-09T10:33:21.380Z,1.38
2022-11-09T10:36:08.367Z,1.77
2022-11-09T10:38:46.849Z,1.95
2022-11-09T10:41:34.530Z,1.85
2022-11-09T10:44:20.657Z,1.55
2022-11-09T10:47:12.630Z,1.58
2022-11-09T10:50:35.562Z,1.50
2022-11-09T10:53:29.506Z,1.33
2022-11-09T10:56:21.907Z,1.42
2022-11-09T10:59:47.156Z,1.20
2022-11-09T11:02:35.283Z,1.40
2022-11-09T11:05:25.065Z,1.50
2022-11-09T11:08:29.423Z,1.27
2022-11-09T11:11:37.672Z,1.58
2022-11-09T11:14:34.477Z,1.30
2022-11-09T11:17:29.332Z,1.20
2022-11-09T11:20:27.824Z,1.30
2022-11-09T11:23:13.059Z,1.20
2022-11-09T11:26:21.937Z,1.10
2022-11-09T11:29:19.364Z,1.30
2022-11-09T11:32:08.789Z,1.42
2022-11-09T11:35:00.358Z,1.17
2022-11-09T11:38:01.347Z,1.30
2022-11-09T11:40:55.761Z,1.30
2022-11-09T11:43:54.812Z,1.27
2022-11-09T11:46:48.773Z,1.27
2022-11-09T11:50:17.296Z,1.15
2022-11-09T11:53:48.630Z,1.20
2022-11-09T11:56:42.027Z,1.30
2022-11-09T11:59:50.697Z,0.95
2022-11-09T12:03:03.067Z,1.30
2022-11-09T12:06:04.388Z,1.02
2022-11-09T12:09:00.141Z,1.27
2022-11-09T12:11:51.541Z,1.20
2022-11-09T12:14:57.747Z,1.40
2022-11-09T12:18:15.043Z,1.17
2022-11-09T12:21:14.961Z,1.38
2022-11-09T12:24:18.227Z,0.90
2022-11-09T12:27:36.538Z,1.00
2022-11-09T12:30:25.932Z,1.23
2022-11-09T12:33:15.856Z,1.38
2022-11-09T12:36:07.171Z,0.88
2022-11-09T12:39:05.309Z,1.00
2022-11-09T12:41:52.138Z,1.13
2022-11-09T12:44:46.860Z,1.00
2022-11-09T12:47:41.519Z,1.20
2022-11-09T12:50:27.719Z,1.17
2022-11-09T12:53:13.880Z,0.85
2022-11-09T12:56:11.084Z,1.10
2022-11-09T12:59:22.408Z,1.00
2022-11-09T13:02:36.832Z,1.25
2022-11-09T13:05:39.011Z,1.30
2022-11-09T13:08:29.234Z,1.50
2022-11-09T13:11:33.434Z,1.17
2022-11-09T13:14:31.025Z,1.10
2022-11-09T13:17:28.479Z,1.17
2022-11-09T13:26:46.707Z,1.23
2022-11-09T13:29:41.140Z,1.27
2022-11-09T13:32:33.488Z,1.30
2022-11-09T13:35:40.232Z,1.10
2022-11-09T13:38:28.544Z,1.40
2022-11-09T13:41:32.253Z,1.20
2022-11-09T13:44:28.123Z,1.40
2022-11-09T13:47:27.906Z,1.38
2022-11-09T13:50:25.360Z,1.33
2022-11-09T13:53:37.647Z,1.50
2022-11-09T13:56:40.084Z,1.73
2022-11-09T13:59:36.978Z,1.60
2022-11-09T14:02:25.943Z,1.40
2022-11-09T14:05:35.830Z,1.40
2022-11-09T14:08:27.112Z,1.48
2022-11-09T14:11:28.234Z,1.27
2022-11-09T14:14:36.649Z,1.35
2022-11-09T14:17:44.315Z,1.35
2022-11-09T14:20:58.893Z,1.60
2022-11-09T14:23:44.312Z,1.27
2022-11-09T14:26:29.919Z,1.40
2022-11-09T14:29:23.506Z,1.42
2022-11-09T14:32:27.295Z,1.38
2022-11-09T14:35:26.701Z,1.65
2022-11-09T14:38:23.481Z,1.63
2022-11-09T14:41:20.713Z,1.55
2022-11-09T14:44:05.860Z,1.80
2022-11-09T14:46:56.356Z,1.80
2022-11-09T14:49:42.366Z,1.50
2022-11-09T14:52:29.836Z,1.58
2022-11-09T14:55:17.057Z,1.30
2022-11-09T14:58:03.041Z,1.17
2022-11-09T15:01:09.844Z,1.20
2022-11-09T15:04:17.098Z,1.50
2022-11-09T15:07:04.110Z,1.42
2022-11-09T15:09:54.563Z,1.70
2022-11-09T15:12:46.762Z,1.38
2022-11-09T15:15:35.177Z,1.30
2022-11-09T15:18:30.329Z,1.20
2022-11-09T15:21:19.820Z,1.63
2022-11-09T15:24:08.219Z,1.08
2022-11-09T15:26:54.979Z,1.05
2022-11-09T15:29:43.614Z,1.40
2022-11-09T15:32:34.354Z,1.08
2022-11-09T15:35:20.501Z,0.98
2022-11-09T15:38:06.303Z,1.40
2022-11-09T15:40:51.480Z,1.40
2022-11-09T15:43:37.372Z,1.42
2022-11-09T15:46:32.262Z,1.83
2022-11-09T15:49:26.941Z,1.30
2022-11-09T15:52:12.800Z,1.30
2022-11-09T15:54:58.593Z,1.08
2022-11-09T15:57:44.137Z,0.88
2022-11-09T16:00:29.869Z,1.10
2022-11-09T16:03:17.420Z,1.80
2022-11-09T16:06:02.573Z,1.30
2022-11-09T16:08:48.669Z,1.10
2022-11-09T16:11:34.011Z,1.17
2022-11-09T16:14:22.108Z,1.33
2022-11-09T16:17:07.339Z,1.90
2022-11-09T16:19:52.566Z,1.52
2022-11-09T16:22:38.006Z,1.30
2022-11-09T16:25:23.689Z,1.35
2022-11-09T16:28:08.903Z,1.25
2022-11-09T16:30:54.560Z,1.50
2022-11-09T16:33:40.496Z,1.40
2022-11-09T16:36:25.974Z,1.10
2022-11-09T16:39:17.181Z,1.25
2022-11-09T16:42:09.332Z,1.20
2022-11-09T16:44:59.173Z,1.27
2022-11-09T16:47:51.326Z,1.45
2022-11-09T16:50:36.493Z,1.60
2022-11-09T16:53:26.754Z,1.40
2022-11-09T16:56:12.910Z,1.42
2022-11-09T16:58:58.386Z,1.65
2022-11-09T17:01:53.717Z,1.73
2022-11-09T17:04:39.252Z,1.60
2022-11-09T17:07:25.338Z,1.52
2022-11-09T17:10:11.662Z,1.50
2022-11-09T17:12:57.001Z,1.25
2022-11-09T17:15:48.003Z,1.60
2022-11-09T17:18:33.417Z,1.65
2022-11-09T17:25:50.517Z,2.13
2022-11-09T17:28:53.414Z,1.48
2022-11-09T17:32:00.847Z,1.55
2022-11-09T17:34:47.968Z,1.73
2022-11-09T17:38:12.527Z,1.50
2022-11-09T17:42:06.525Z,1.90
2022-11-09T17:45:37.383Z,1.30
2022-11-09T17:48:42.329Z,1.30
2022-11-09T17:51:49.339Z,1.05
2022-11-09T17:55:20.650Z,1.50
2022-11-09T17:58:32.514Z,1.50
2022-11-09T18:05:46.939Z,1.75
2022-11-09T18:13:26.144Z,1.73
2022-11-09T18:16:21.869Z,1.40
2022-11-09T18:19:11.059Z,1.30
2022-11-09T18:32:41.096Z,1.15
2022-11-09T18:35:41.229Z,1.30
2022-11-09T18:38:36.968Z,1.50
2022-11-09T18:41:48.901Z,1.33
2022-11-09T18:45:38.878Z,1.70
2022-11-09T18:48:42.350Z,1.40
2022-11-09T18:57:27.613Z,1.13
2022-11-09T19:00:20.112Z,1.42
2022-11-09T19:03:19.032Z,1.70
2022-11-09T19:06:37.672Z,1.63
2022-11-09T19:09:44.094Z,1.60
2022-11-09T19:12:50.381Z,1.48
2022-11-09T19:19:16.389Z,1.63
2022-11-09T19:22:02.485Z,1.40
2022-11-09T19:25:05.828Z,1.60
2022-11-09T19:28:10.897Z,1.50
2022-11-09T19:45:06.150Z,0.90
2022-11-09T19:48:15.606Z,0.75
2022-11-09T20:02:27.992Z,0.75
2022-11-09T20:05:26.356Z,1.13
2022-11-09T20:08:26.997Z,0.82
2022-11-09T20:12:26.218Z,0.75
2022-11-09T20:18:49.915Z,0.77
2022-11-09T20:29:33.349Z,0.52
2022-11-09T20:46:02.166Z,0.77
2022-11-09T20:50:00.875Z,0.80
2022-11-09T20:52:51.682Z,1.13
2022-11-09T20:59:00.352Z,1.13
2022-11-09T21:01:50.744Z,1.17
2022-11-09T21:05:27.765Z,1.25
2022-11-09T21:18:50.751Z,0.80
2022-11-09T21:26:28.679Z,0.63
2022-11-09T21:33:58.061Z,0.50
2022-11-09T21:37:32.786Z,0.50
2022-11-09T21:44:34.561Z,0.70
2022-11-09T21:47:36.062Z,0.70
2022-11-09T21:55:18.598Z,0.52
2022-11-09T22:01:58.092Z,0.70
2022-11-09T22:09:35.837Z,0.73
2022-11-09T22:13:13.002Z,0.40
2022-11-09T22:15:59.587Z,0.68
2022-11-09T22:22:46.563Z,0.45
2022-11-09T22:26:32.949Z,0.50
2022-11-09T22:30:01.804Z,0.50
2022-11-09T22:33:35.248Z,0.50
2022-11-09T22:36:23.130Z,0.35
2022-11-09T22:39:08.434Z,0.55
2022-11-09T22:41:54.640Z,0.32
2022-11-09T22:44:42.845Z,0.30
2022-11-09T22:47:28.426Z,0.63
2022-11-09T22:50:13.731Z,0.70
2022-11-09T22:53:03.468Z,0.50
2022-11-09T22:55:56.663Z,0.50
2022-11-09T22:58:42.650Z,0.70
2022-11-09T23:01:28.276Z,0.68
2022-11-09T23:04:13.686Z,0.60
2022-11-09T23:06:59.354Z,0.50
2022-11-09T23:09:44.911Z,0.63
2022-11-09T23:12:33.075Z,0.43
2022-11-09T23:15:18.553Z,0.35
2022-11-09T23:18:22.329Z,0.50
2022-11-09T23:21:08.128Z,0.50
2022-11-09T23:23:55.165Z,0.52
2022-11-09T23:26:40.723Z,0.55
2022-11-09T23:29:25.966Z,0.50
2022-11-09T23:32:11.359Z,0.55
2022-11-09T23:34:56.806Z,1.10
2022-11-09T23:37:42.217Z,0.95
2022-11-09T23:40:28.476Z,1.15
2022-11-09T23:43:14.316Z,0.50
2022-11-09T23:46:05.310Z,0.68
2022-11-09T23:48:50.974Z,0.65
2022-11-09T23:51:36.182Z,0.50
2022-11-09T23:54:21.661Z,0.52
2022-11-09T23:57:07.098Z,0.47
2022-11-09T23:59:52.670Z,0.50
